Time;durP1;ratioP1;P1;durP2;ratioP2;P2;SDS_P1;SDS_P2;PMS_P1;PMS_P2;Temp;Humidity;BMP_temperature;BMP_pressure;BME280_temperature;BME280_humidity;BME280_pressure;Samples;Min_cycle;Max_cycle;Signal;HPM_P1;HPM_P2
2022/05/28 00:01:11;;;;;;;5.77;2.33;;;11.90;99.90;;;;;;5044962;28;20619;-51
2022/05/28 00:03:39;;;;;;;11.00;2.43;;;11.80;99.90;;;;;;5044018;28;20206;-52
2022/05/28 00:06:25;;;;;;;8.07;2.40;;;11.80;99.90;;;;;;5047324;28;20243;-50
2022/05/28 00:08:52;;;;;;;8.97;2.53;;;11.60;99.90;;;;;;5050506;28;20275;-50
2022/05/28 00:11:23;;;;;;;9.77;2.37;;;11.60;99.90;;;;;;5049944;28;20239;-49
2022/05/28 00:13:51;;;;;;;10.57;2.57;;;11.60;99.90;;;;;;5045559;28;20231;-51
2022/05/28 00:16:19;;;;;;;12.23;2.57;;;11.80;99.90;;;;;;5049528;28;20655;-50
2022/05/28 00:18:49;;;;;;;6.30;2.00;;;11.90;99.90;;;;;;5053813;28;20207;-51
2022/05/28 00:21:16;;;;;;;7.80;2.27;;;11.70;99.90;;;;;;5049968;28;20200;-51
2022/05/28 00:23:44;;;;;;;10.17;2.43;;;11.90;99.90;;;;;;5053489;28;20270;-51
2022/05/28 00:26:13;;;;;;;9.17;2.70;;;11.90;99.90;;;;;;5063098;28;20202;-52
2022/05/28 00:28:41;;;;;;;7.00;2.13;;;11.80;99.90;;;;;;5054919;28;20743;-50
2022/05/28 00:31:08;;;;;;;10.33;2.73;;;11.90;99.90;;;;;;5065752;28;20234;-50
2022/05/28 00:33:35;;;;;;;10.80;3.43;;;11.90;99.90;;;;;;5061387;28;20202;-50
2022/05/28 00:36:05;;;;;;;10.70;2.40;;;11.90;99.90;;;;;;5064357;28;20201;-51
2022/05/28 00:38:31;;;;;;;10.13;2.50;;;12.20;99.90;;;;;;5051381;28;20830;-51
2022/05/28 00:40:59;;;;;;;9.80;3.97;;;12.20;99.90;;;;;;5054680;28;20203;-50
2022/05/28 00:43:28;;;;;;;10.07;3.00;;;12.20;99.90;;;;;;5055205;28;20207;-53
2022/05/28 00:46:04;;;;;;;8.17;2.80;;;12.20;99.90;;;;;;5052621;28;20200;-52
2022/05/28 00:48:34;;;;;;;8.60;3.37;;;12.30;99.90;;;;;;5059003;28;20215;-51
2022/05/28 00:51:11;;;;;;;7.23;3.10;;;12.20;99.90;;;;;;5052474;28;20255;-51
2022/05/28 00:53:37;;;;;;;10.57;3.30;;;12.30;99.90;;;;;;5059203;28;20588;-52
2022/05/28 00:56:05;;;;;;;10.53;3.20;;;12.30;99.90;;;;;;5056008;28;20199;-51
2022/05/28 00:58:33;;;;;;;8.60;3.63;;;12.30;99.90;;;;;;5049760;28;20233;-51
2022/05/28 01:01:02;;;;;;;12.73;4.83;;;12.30;99.90;;;;;;5033123;28;20233;-51
2022/05/28 01:03:36;;;;;;;10.30;4.03;;;12.20;99.90;;;;;;5052025;28;20201;-52
2022/05/28 01:06:24;;;;;;;9.20;3.20;;;12.30;99.90;;;;;;5049864;28;20239;-51
2022/05/28 01:09:17;;;;;;;7.30;2.90;;;12.30;99.90;;;;;;5053324;28;20243;-51
2022/05/28 01:11:59;;;;;;;8.30;3.40;;;12.30;99.90;;;;;;5047489;28;20246;-51
2022/05/28 01:14:51;;;;;;;9.23;3.43;;;12.10;99.90;;;;;;5049377;28;20294;-50
2022/05/28 01:17:26;;;;;;;5.80;2.47;;;12.10;99.90;;;;;;5055564;28;20237;-51
2022/05/28 01:20:20;;;;;;;12.63;3.80;;;12.00;99.90;;;;;;5052759;28;20213;-50
2022/05/28 01:23:02;;;;;;;10.57;3.03;;;11.90;99.90;;;;;;5051783;28;20226;-51
2022/05/28 01:25:47;;;;;;;8.43;2.60;;;12.10;99.90;;;;;;5045629;28;20227;-51
2022/05/28 01:28:19;;;;;;;7.43;2.20;;;12.30;99.90;;;;;;5048261;28;20208;-50
2022/05/28 01:30:47;;;;;;;9.00;2.80;;;12.30;99.90;;;;;;5051282;28;20277;-50
2022/05/28 01:33:16;;;;;;;8.07;2.43;;;12.20;99.90;;;;;;5045402;28;20291;-51
2022/05/28 01:35:45;;;;;;;9.47;3.33;;;12.20;99.90;;;;;;5046113;28;20277;-51
2022/05/28 01:38:14;;;;;;;4.60;2.23;;;12.20;99.90;;;;;;5053025;28;20257;-51
2022/05/28 01:40:43;;;;;;;6.60;2.57;;;12.30;99.90;;;;;;5042457;28;20203;-50
2022/05/28 01:43:14;;;;;;;7.00;2.23;;;12.30;99.90;;;;;;5049426;28;20221;-51
2022/05/28 01:45:46;;;;;;;11.43;2.87;;;12.40;99.90;;;;;;5049696;28;20204;-50
2022/05/28 01:48:16;;;;;;;10.17;2.47;;;12.40;99.90;;;;;;5052667;28;20208;-50
2022/05/28 01:50:47;;;;;;;7.30;2.60;;;12.40;99.90;;;;;;5044678;28;20214;-52
2022/05/28 01:54:06;;;;;;;9.27;2.23;;;12.50;99.90;;;;;;5041205;28;20193;-53
2022/05/28 01:56:05;;;;;;;13.23;2.40;;;12.50;99.90;;;;;;5045626;28;20225;-51
2022/05/28 01:58:32;;;;;;;8.57;2.03;;;12.50;99.90;;;;;;5044823;28;20250;-49
2022/05/28 02:01:01;;;;;;;10.67;2.43;;;12.50;99.90;;;;;;5046161;28;20226;-49
2022/05/28 02:03:31;;;;;;;5.63;2.23;;;12.50;99.90;;;;;;5033118;28;20205;-49
2022/05/28 02:05:58;;;;;;;8.97;2.60;;;12.60;99.90;;;;;;5047782;28;20207;-51
2022/05/28 02:08:29;;;;;;;8.80;2.50;;;12.60;99.90;;;;;;5048437;28;20297;-50
2022/05/28 02:11:20;;;;;;;8.60;2.67;;;12.60;99.90;;;;;;5046840;28;20337;-50
2022/05/28 02:13:56;;;;;;;9.63;2.60;;;12.60;99.90;;;;;;5042432;28;20226;-51
2022/05/28 02:16:48;;;;;;;10.67;2.47;;;12.40;99.90;;;;;;5035598;28;20198;-49
2022/05/28 02:19:45;;;;;;;7.50;2.23;;;12.40;99.90;;;;;;5037286;28;20239;-49
2022/05/28 02:22:30;;;;;;;8.60;2.33;;;12.30;99.90;;;;;;5060826;28;20247;-51
2022/05/28 02:25:03;;;;;;;9.23;2.50;;;12.10;99.90;;;;;;5054248;28;20545;-52
2022/05/28 02:27:31;;;;;;;6.03;2.50;;;12.00;99.90;;;;;;5045889;28;20204;-50
2022/05/28 02:30:00;;;;;;;5.67;2.43;;;12.00;99.90;;;;;;5051440;28;20225;-53
2022/05/28 02:32:27;;;;;;;6.10;2.00;;;12.10;99.90;;;;;;5057727;28;20260;-50
2022/05/28 02:34:54;;;;;;;9.57;2.60;;;12.10;99.90;;;;;;5045962;28;20243;-49
2022/05/28 02:37:24;;;;;;;9.03;2.53;;;12.10;99.90;;;;;;5056468;28;20667;-49
2022/05/28 02:39:51;;;;;;;8.40;2.47;;;11.80;99.90;;;;;;5049883;28;20218;-49
2022/05/28 02:42:18;;;;;;;10.57;2.57;;;11.60;99.90;;;;;;5046819;28;20683;-49
2022/05/28 02:44:45;;;;;;;11.53;2.70;;;11.50;99.90;;;;;;5049639;28;20329;-52
2022/05/28 02:47:12;;;;;;;8.47;2.60;;;11.40;99.90;;;;;;5054481;28;20297;-51
2022/05/28 02:49:38;;;;;;;8.37;2.60;;;11.50;99.90;;;;;;5052107;28;20221;-52
2022/05/28 02:52:07;;;;;;;11.27;2.70;;;11.60;99.90;;;;;;5032823;28;20240;-50
2022/05/28 02:54:34;;;;;;;3.70;2.20;;;11.60;99.90;;;;;;5049266;28;20196;-52
2022/05/28 02:57:02;;;;;;;9.37;2.33;;;11.60;99.90;;;;;;5052595;28;20198;-51
2022/05/28 02:59:29;;;;;;;11.27;2.47;;;11.70;99.90;;;;;;5050308;28;20204;-51
2022/05/28 03:01:55;;;;;;;7.60;2.40;;;11.60;99.90;;;;;;5049801;28;20197;-52
2022/05/28 03:04:22;;;;;;;17.17;4.00;;;11.70;99.90;;;;;;5043005;28;20203;-51
2022/05/28 03:06:52;;;;;;;10.67;2.20;;;11.80;99.90;;;;;;5053019;28;20541;-51
2022/05/28 03:09:19;;;;;;;6.83;2.20;;;12.00;99.90;;;;;;5045803;28;20219;-51
2022/05/28 03:11:46;;;;;;;9.63;2.20;;;12.00;99.90;;;;;;5048266;28;20240;-50
2022/05/28 03:14:13;;;;;;;4.27;1.63;;;11.90;99.90;;;;;;5050016;28;20652;-51
2022/05/28 03:16:40;;;;;;;6.80;1.70;;;11.90;99.90;;;;;;5055223;28;20606;-52
2022/05/28 03:19:06;;;;;;;14.30;2.63;;;11.90;99.90;;;;;;5045309;28;20205;-50
2022/05/28 03:21:33;;;;;;;6.10;1.80;;;11.90;99.90;;;;;;5048729;28;20207;-50
2022/05/28 03:24:00;;;;;;;4.60;1.77;;;12.00;99.90;;;;;;5046026;28;20209;-50
2022/05/28 03:26:30;;;;;;;7.70;1.80;;;12.10;99.90;;;;;;5031124;28;20246;-52
2022/05/28 03:28:57;;;;;;;7.87;1.70;;;12.10;99.90;;;;;;5039024;28;20574;-50
2022/05/28 03:31:26;;;;;;;7.77;1.70;;;12.20;99.90;;;;;;5052747;28;20222;-50
2022/05/28 03:33:53;;;;;;;6.47;1.40;;;12.20;99.90;;;;;;5044378;28;20263;-51
2022/05/28 03:36:20;;;;;;;7.37;1.87;;;12.30;99.90;;;;;;5048534;28;20196;-51
2022/05/28 03:38:47;;;;;;;6.60;2.17;;;12.30;99.90;;;;;;5050660;28;20774;-51
2022/05/28 03:41:15;;;;;;;10.07;1.60;;;12.40;99.90;;;;;;5046397;28;20264;-49
2022/05/28 03:43:41;;;;;;;6.13;1.47;;;12.40;99.90;;;;;;5046244;28;20230;-50
2022/05/28 03:46:28;;;;;;;10.17;1.90;;;12.40;99.90;;;;;;5049876;28;20210;-49
2022/05/28 03:48:59;;;;;;;7.93;1.93;;;12.50;99.90;;;;;;5050984;28;20685;-50
2022/05/28 03:51:26;;;;;;;8.00;2.03;;;12.60;99.90;;;;;;5045816;28;20246;-51
2022/05/28 03:53:53;;;;;;;8.87;1.73;;;12.50;99.90;;;;;;5049230;28;20726;-51
2022/05/28 03:56:21;;;;;;;7.97;1.87;;;12.50;99.90;;;;;;5045023;28;20203;-51
2022/05/28 03:58:50;;;;;;;6.20;1.23;;;12.50;99.90;;;;;;5049935;28;20735;-50
2022/05/28 04:01:18;;;;;;;9.00;2.00;;;12.50;99.90;;;;;;5044216;28;20205;-52
2022/05/28 04:03:45;;;;;;;8.27;1.83;;;12.50;99.90;;;;;;5026038;28;20659;-50
2022/05/28 04:06:12;;;;;;;7.40;1.40;;;12.50;99.90;;;;;;5043024;28;20258;-50
2022/05/28 04:08:40;;;;;;;9.90;1.90;;;12.60;99.90;;;;;;5057777;28;20200;-51
2022/05/28 04:11:07;;;;;;;8.03;1.43;;;12.50;99.90;;;;;;5043359;28;20364;-51
2022/05/28 04:13:34;;;;;;;8.80;1.67;;;12.60;99.90;;;;;;5051084;28;20207;-51
2022/05/28 04:16:01;;;;;;;11.40;1.70;;;12.50;99.90;;;;;;5046506;28;20281;-51
2022/05/28 04:18:28;;;;;;;7.20;2.13;;;12.50;99.90;;;;;;5055855;28;20251;-52
2022/05/28 04:20:55;;;;;;;11.70;2.40;;;12.60;99.90;;;;;;5050861;28;20284;-51
2022/05/28 04:23:21;;;;;;;6.70;1.47;;;12.60;99.90;;;;;;5051636;28;20361;-50
2022/05/28 04:25:48;;;;;;;10.90;2.33;;;12.70;99.90;;;;;;5043623;28;20227;-50
2022/05/28 04:28:15;;;;;;;6.33;1.37;;;12.60;99.90;;;;;;5046199;28;20632;-50
2022/05/28 04:30:42;;;;;;;11.13;2.03;;;12.70;99.90;;;;;;5050918;28;20411;-50
2022/05/28 04:33:09;;;;;;;10.20;1.60;;;12.80;99.90;;;;;;5059990;28;20686;-50
2022/05/28 04:35:36;;;;;;;5.70;1.47;;;12.70;99.90;;;;;;5042613;28;20543;-50
2022/05/28 04:38:03;;;;;;;11.33;2.70;;;12.70;99.90;;;;;;5045864;28;20194;-50
2022/05/28 04:40:30;;;;;;;10.23;1.43;;;12.80;99.90;;;;;;5045280;28;20267;-52
2022/05/28 04:42:57;;;;;;;7.50;1.07;;;12.60;99.90;;;;;;5019229;28;20203;-50
2022/05/28 04:45:24;;;;;;;5.77;1.43;;;12.70;99.90;;;;;;5047285;28;20211;-50
2022/05/28 04:47:51;;;;;;;6.20;1.17;;;12.70;99.90;;;;;;5050066;28;20210;-50
2022/05/28 04:50:17;;;;;;;6.30;1.27;;;12.70;99.90;;;;;;5045328;28;20583;-50
2022/05/28 04:52:44;;;;;;;7.47;1.67;;;12.80;99.90;;;;;;5051599;28;20204;-51
2022/05/28 04:55:12;;;;;;;5.13;1.10;;;12.90;99.90;;;;;;5053526;28;20203;-51
2022/05/28 04:57:39;;;;;;;5.93;1.20;;;13.00;99.90;;;;;;5045016;28;20242;-51
2022/05/28 05:00:11;;;;;;;7.17;1.77;;;12.90;99.90;;;;;;5043988;28;20253;-50
2022/05/28 05:02:37;;;;;;;4.57;1.00;;;13.00;99.90;;;;;;5047563;28;20238;-50
2022/05/28 05:05:05;;;;;;;6.53;1.00;;;12.90;99.90;;;;;;5051797;28;20194;-51
2022/05/28 05:07:32;;;;;;;8.13;2.27;;;12.80;99.90;;;;;;5050718;28;20608;-50
2022/05/28 05:09:59;;;;;;;6.07;1.53;;;12.90;99.90;;;;;;5059139;28;20722;-51
2022/05/28 05:12:25;;;;;;;4.40;0.83;;;13.00;99.90;;;;;;5027047;28;20293;-51
2022/05/28 05:14:52;;;;;;;4.93;0.90;;;13.10;99.90;;;;;;5050453;28;20241;-51
2022/05/28 05:17:19;;;;;;;5.70;1.30;;;13.00;99.90;;;;;;5051064;28;20623;-50
2022/05/28 05:19:46;;;;;;;8.60;1.53;;;13.00;99.90;;;;;;5054339;28;20208;-50
2022/05/28 05:22:13;;;;;;;6.20;0.97;;;13.10;99.90;;;;;;5054248;28;20225;-51
2022/05/28 05:24:40;;;;;;;4.40;0.70;;;13.10;99.90;;;;;;5049707;28;20204;-50
2022/05/28 05:27:09;;;;;;;7.73;1.20;;;13.20;99.90;;;;;;5041445;28;20319;-50
2022/05/28 05:29:37;;;;;;;6.00;1.30;;;13.20;99.90;;;;;;5046028;28;20220;-51
2022/05/28 05:32:04;;;;;;;5.80;0.80;;;13.40;99.90;;;;;;5053980;28;20631;-50
2022/05/28 05:34:31;;;;;;;4.23;0.90;;;13.50;99.90;;;;;;5052939;28;20194;-51
2022/05/28 05:36:58;;;;;;;3.97;0.90;;;13.40;99.90;;;;;;5054719;28;20630;-51
2022/05/28 05:39:25;;;;;;;5.23;0.90;;;13.40;99.90;;;;;;5050525;28;20276;-49
2022/05/28 05:41:53;;;;;;;4.00;0.97;;;13.50;99.90;;;;;;5049984;28;20265;-51
2022/05/28 05:44:19;;;;;;;3.77;0.70;;;13.50;99.90;;;;;;5051112;28;20320;-49
2022/05/28 05:46:46;;;;;;;2.10;0.90;;;13.60;99.90;;;;;;5053743;28;20251;-50
2022/05/28 05:49:13;;;;;;;3.50;0.90;;;13.60;99.90;;;;;;5054085;28;20270;-51
2022/05/28 05:51:45;;;;;;;3.00;1.20;;;13.50;99.90;;;;;;5052781;28;20200;-50
2022/05/28 05:54:13;;;;;;;5.70;1.00;;;13.60;99.90;;;;;;5051642;28;20199;-50
2022/05/28 05:56:40;;;;;;;2.97;1.20;;;13.50;99.90;;;;;;5050525;28;20486;-51
2022/05/28 05:59:07;;;;;;;6.13;1.10;;;13.40;99.90;;;;;;5047719;28;20229;-52
2022/05/28 06:01:34;;;;;;;2.33;0.80;;;13.30;99.90;;;;;;5044097;28;20622;-51
2022/05/28 06:04:01;;;;;;;5.80;1.20;;;13.20;99.90;;;;;;5046515;28;20734;-52
2022/05/28 06:06:28;;;;;;;8.90;2.00;;;13.20;99.90;;;;;;5034779;28;20560;-51
2022/05/28 06:08:55;;;;;;;6.87;1.13;;;13.30;99.90;;;;;;5045740;28;20755;-50
2022/05/28 06:11:22;;;;;;;5.67;0.90;;;13.50;99.90;;;;;;5043566;28;20345;-50
2022/05/28 06:13:48;;;;;;;3.73;1.00;;;13.50;99.90;;;;;;5046167;28;20261;-54
2022/05/28 06:16:15;;;;;;;3.57;0.93;;;13.40;99.90;;;;;;5041033;28;20243;-50
2022/05/28 06:18:43;;;;;;;5.53;1.23;;;13.50;99.90;;;;;;5043282;28;20203;-50
2022/05/28 06:21:10;;;;;;;6.67;2.00;;;13.70;99.90;;;;;;5051924;28;20235;-50
2022/05/28 06:23:38;;;;;;;7.23;0.90;;;13.70;99.90;;;;;;5051616;28;20269;-50
2022/05/28 06:26:05;;;;;;;5.80;1.20;;;13.80;99.90;;;;;;5048577;28;20318;-51
2022/05/28 06:28:32;;;;;;;4.07;1.03;;;13.90;99.90;;;;;;5046165;28;20230;-50
2022/05/28 06:31:01;;;;;;;3.33;0.90;;;14.10;99.90;;;;;;5047595;28;20223;-50
2022/05/28 06:33:28;;;;;;;7.17;0.87;;;14.10;99.90;;;;;;5052497;28;20566;-50
2022/05/28 06:35:56;;;;;;;4.50;0.90;;;14.10;99.90;;;;;;5053376;28;20234;-51
2022/05/28 06:38:23;;;;;;;3.03;0.80;;;13.90;99.90;;;;;;5045604;28;20660;-51
2022/05/28 06:40:51;;;;;;;3.07;0.70;;;13.80;99.90;;;;;;5030590;28;20229;-49
2022/05/28 06:43:18;;;;;;;5.33;1.03;;;14.00;99.90;;;;;;5047102;28;20790;-49
2022/05/28 06:45:45;;;;;;;5.23;1.53;;;14.20;99.90;;;;;;5045382;28;20231;-50
2022/05/28 06:48:13;;;;;;;7.50;0.90;;;14.40;99.90;;;;;;5055540;28;20209;-50
2022/05/28 06:53:25;;;;;;;4.80;0.83;;;14.30;99.90;;;;;;5038499;28;20199;-51
2022/05/28 06:55:52;;;;;;;2.80;0.70;;;14.30;99.90;;;;;;5050489;28;20907;-50
2022/05/28 06:58:19;;;;;;;2.93;0.90;;;14.30;99.90;;;;;;5049956;28;20694;-51
2022/05/28 07:00:46;;;;;;;2.87;0.73;;;14.40;99.90;;;;;;5045506;28;20199;-50
2022/05/28 07:03:15;;;;;;;3.70;0.70;;;14.90;99.90;;;;;;5044955;28;20230;-51
2022/05/28 07:05:43;;;;;;;3.40;0.80;;;14.90;99.90;;;;;;5049221;28;20277;-52
2022/05/28 07:08:10;;;;;;;2.97;0.80;;;15.10;90.30;;;;;;5039605;28;20847;-51
2022/05/28 07:10:43;;;;;;;5.50;1.37;;;14.90;84.70;;;;;;5048124;28;20230;-51
2022/05/28 07:13:10;;;;;;;3.33;0.87;;;14.80;98.00;;;;;;5044819;28;20209;-50
2022/05/28 07:15:38;;;;;;;4.00;1.30;;;14.60;99.90;;;;;;5039272;28;20706;-50
2022/05/28 07:18:05;;;;;;;6.77;1.37;;;15.00;97.80;;;;;;5039978;28;20677;-49
2022/05/28 07:20:32;;;;;;;4.83;1.07;;;15.70;82.00;;;;;;5031566;28;20235;-52
2022/05/28 07:23:06;;;;;;;5.00;1.30;;;15.70;28.80;;;;;;5047011;28;20232;-50
2022/05/28 07:25:33;;;;;;;7.60;0.90;;;15.40;53.70;;;;;;5039241;28;20258;-51
2022/05/28 07:28:00;;;;;;;4.47;1.00;;;15.80;37.40;;;;;;5042671;28;20235;-50
2022/05/28 07:30:27;;;;;;;1.43;0.80;;;15.90;1.00;;;;;;5048272;28;20636;-51
2022/05/28 07:32:54;;;;;;;6.07;1.00;;;15.60;1.00;;;;;;5046054;28;20559;-51
2022/05/28 07:35:21;;;;;;;4.43;0.80;;;16.00;1.00;;;;;;5045463;28;20814;-51
2022/05/28 07:37:52;;;;;;;2.83;0.70;;;16.30;1.00;;;;;;5059336;28;20205;-50
2022/05/28 07:40:19;;;;;;;3.63;1.20;;;16.40;1.00;;;;;;5052053;28;20233;-51
2022/05/28 07:42:46;;;;;;;4.67;1.10;;;16.00;1.00;;;;;;5052865;28;20625;-50
2022/05/28 07:45:19;;;;;;;3.90;1.13;;;15.50;1.00;;;;;;5045693;28;20212;-49
2022/05/28 07:47:46;;;;;;;7.47;1.17;;;15.30;1.00;;;;;;5049330;28;20198;-50
2022/05/28 07:50:12;;;;;;;2.57;0.60;;;14.90;5.40;;;;;;5045840;28;20738;-50
2022/05/28 07:52:39;;;;;;;7.10;1.13;;;14.90;25.40;;;;;;5036896;28;20600;-51
2022/05/28 07:55:09;;;;;;;5.70;0.90;;;14.60;13.90;;;;;;5027919;28;20238;-52
2022/05/28 07:57:38;;;;;;;2.67;0.90;;;14.80;1.00;;;;;;5057648;28;20530;-50
2022/05/28 08:00:05;;;;;;;2.53;0.70;;;15.50;1.00;;;;;;5043599;28;20566;-50
2022/05/28 08:02:32;;;;;;;2.90;0.70;;;15.80;1.00;;;;;;5044937;28;20231;-50
2022/05/28 08:04:59;;;;;;;3.97;0.77;;;15.80;1.00;;;;;;5063984;28;20258;-52
2022/05/28 08:07:26;;;;;;;3.40;0.83;;;16.00;1.00;;;;;;5060130;28;20205;-51
2022/05/28 08:09:53;;;;;;;4.77;0.77;;;15.90;1.00;;;;;;5047405;28;20265;-49
2022/05/28 08:12:19;;;;;;;2.73;0.90;;;16.00;1.00;;;;;;5042275;28;20293;-50
2022/05/28 08:14:46;;;;;;;2.20;0.97;;;16.20;1.00;;;;;;5009964;28;20282;-51
2022/05/28 08:17:15;;;;;;;3.80;1.00;;;16.50;1.00;;;;;;5028232;28;20668;-50
2022/05/28 08:19:42;;;;;;;3.73;1.20;;;16.50;1.00;;;;;;5032392;28;20234;-51
2022/05/28 08:24:54;;;;;;;2.97;1.07;;;16.50;1.00;;;;;;5018812;28;20236;-49
2022/05/28 08:27:21;;;;;;;2.50;0.67;;;16.30;1.00;;;;;;5028758;28;20211;-49
2022/05/28 08:29:49;;;;;;;3.73;1.00;;;16.50;1.00;;;;;;5027811;28;20226;-50
2022/05/28 08:32:18;;;;;;;3.30;0.80;;;16.60;1.00;;;;;;5024123;28;20237;-49
2022/05/28 08:34:45;;;;;;;1.40;0.80;;;16.70;1.00;;;;;;5026003;28;20571;-50
2022/05/28 08:37:12;;;;;;;4.60;0.80;;;17.20;1.00;;;;;;5023174;28;20210;-50
2022/05/28 08:39:39;;;;;;;3.47;0.87;;;16.50;1.00;;;;;;5034425;28;20283;-50
2022/05/28 08:42:11;;;;;;;6.37;1.10;;;16.10;1.00;;;;;;5030660;28;20204;-51
2022/05/28 08:44:40;;;;;;;3.73;0.73;;;15.90;1.00;;;;;;5030729;28;20222;-51
2022/05/28 08:47:25;;;;;;;3.57;0.70;;;15.60;1.00;;;;;;5030090;28;20203;-50
2022/05/28 08:49:53;;;;;;;2.50;0.70;;;15.60;1.00;;;;;;5028241;28;20249;-51
2022/05/28 08:52:25;;;;;;;2.73;0.80;;;15.90;1.00;;;;;;5032540;28;20268;-51
2022/05/28 08:54:58;;;;;;;3.47;0.83;;;16.20;1.00;;;;;;5035563;28;20249;-50
2022/05/28 08:57:48;;;;;;;4.60;1.00;;;16.60;1.00;;;;;;5025071;28;20655;-50
2022/05/28 09:00:27;;;;;;;2.23;0.70;;;17.20;1.00;;;;;;5034841;28;20258;-50
2022/05/28 09:03:02;;;;;;;2.23;0.70;;;17.30;1.00;;;;;;5043868;28;20207;-51
2022/05/28 09:05:34;;;;;;;2.43;0.90;;;17.20;1.00;;;;;;5036231;28;20198;-52
2022/05/28 09:08:03;;;;;;;2.33;0.70;;;17.90;1.00;;;;;;5034090;28;20288;-51
2022/05/28 09:10:48;;;;;;;6.83;1.13;;;18.10;1.00;;;;;;5044956;28;20241;-50
2022/05/28 09:13:42;;;;;;;4.60;0.83;;;18.10;1.00;;;;;;5070154;28;20203;-51
2022/05/28 09:16:29;;;;;;;2.20;0.80;;;18.00;1.00;;;;;;5053263;28;20215;-53
2022/05/28 09:19:08;;;;;;;1.77;0.80;;;17.60;1.00;;;;;;5074180;28;20229;-51
2022/05/28 09:21:38;;;;;;;4.87;0.87;;;17.30;1.00;;;;;;5074952;28;20203;-50
2022/05/28 09:24:15;;;;;;;6.87;1.20;;;17.20;1.00;;;;;;5061614;28;20233;-51
2022/05/28 09:27:04;;;;;;;3.77;0.90;;;17.00;1.00;;;;;;5060790;28;20202;-51
2022/05/28 09:29:46;;;;;;;6.33;1.30;;;17.30;1.00;;;;;;5058246;28;20264;-51
2022/05/28 09:32:20;;;;;;;4.97;1.10;;;17.80;1.00;;;;;;5063134;28;20282;-51
2022/05/28 09:34:57;;;;;;;5.50;1.00;;;17.40;1.00;;;;;;5062289;28;20191;-52
2022/05/28 09:37:38;;;;;;;2.40;0.80;;;17.90;1.00;;;;;;5062908;28;20637;-50
2022/05/28 09:40:33;;;;;;;3.27;1.00;;;17.90;1.00;;;;;;5062163;28;20224;-52
2022/05/28 09:43:03;;;;;;;4.00;1.10;;;17.60;1.00;;;;;;5059457;28;20233;-52
2022/05/28 09:46:07;;;;;;;3.87;0.77;;;17.50;1.00;;;;;;5061112;28;20221;-52
2022/05/28 09:48:34;;;;;;;3.17;1.10;;;17.40;1.00;;;;;;5059778;28;20198;-52
2022/05/28 09:51:01;;;;;;;4.00;0.80;;;17.40;1.00;;;;;;5058154;28;20250;-50
2022/05/28 09:56:24;;;;;;;2.63;1.00;;;17.30;1.00;;;;;;5060258;28;20195;-50
2022/05/28 09:58:51;;;;;;;5.43;0.87;;;17.80;1.00;;;;;;5049628;28;20222;-52
2022/05/28 10:01:25;;;;;;;2.90;0.70;;;17.70;1.00;;;;;;5062888;28;20199;-50
2022/05/28 10:06:53;;;;;;;5.85;1.33;;;17.80;1.00;;;;;;5060189;28;20453;-50
2022/05/28 10:09:22;;;;;;;3.80;1.77;;;18.20;1.00;;;;;;5068212;28;20264;-48
2022/05/28 10:11:54;;;;;;;2.80;1.00;;;18.50;1.00;;;;;;5057392;28;20235;-49
2022/05/28 10:14:23;;;;;;;3.70;0.80;;;18.00;1.00;;;;;;5060934;28;22538;-52
2022/05/28 10:16:55;;;;;;;18.03;2.03;;;18.20;1.00;;;;;;5065194;28;20976;-53
2022/05/28 10:19:26;;;;;;;5.30;1.27;;;18.30;1.00;;;;;;5059983;28;20198;-51
2022/05/28 10:21:56;;;;;;;17.43;1.60;;;18.30;1.00;;;;;;5057960;28;20223;-48
2022/05/28 10:24:26;;;;;;;5.53;1.17;;;18.40;1.00;;;;;;5063990;28;20277;-52
2022/05/28 10:26:58;;;;;;;2.87;0.83;;;18.70;1.00;;;;;;5061779;28;20290;-51
2022/05/28 10:29:24;;;;;;;3.20;0.70;;;18.70;1.00;;;;;;5070598;28;20268;-50
2022/05/28 10:31:53;;;;;;;8.87;1.10;;;18.70;1.00;;;;;;5063202;28;20215;-52
2022/05/28 10:34:36;;;;;;;5.47;1.20;;;18.40;1.00;;;;;;5063651;28;20199;-51
2022/05/28 10:37:29;;;;;;;4.27;0.90;;;18.20;1.00;;;;;;5056371;28;20199;-50
